createdAt,value
2023-02-27T00:02:04.206Z,97637.88
2023-02-27T00:04:31.529Z,97640.47
2023-02-27T00:06:58.751Z,97641.44
2023-02-27T00:09:26.136Z,97647.66
2023-02-27T00:11:53.384Z,97651.22
2023-02-27T00:14:20.797Z,97642.88
2023-02-27T00:16:48.192Z,97648.09
2023-02-27T00:19:15.449Z,97644.16
2023-02-27T00:21:44.729Z,97643.44
2023-02-27T00:24:11.962Z,97642.19
2023-02-27T00:26:39.160Z,97636.06
2023-02-27T00:29:07.291Z,97642.06
2023-02-27T00:31:34.838Z,97632.88
2023-02-27T00:34:02.167Z,97639.47
2023-02-27T00:36:29.453Z,97647.47
2023-02-27T00:38:58.117Z,97645.81
2023-02-27T00:41:26.366Z,97645.06
2023-02-27T00:43:53.904Z,97646.59
2023-02-27T00:46:21.147Z,97647.81
2023-02-27T00:48:48.502Z,97653.56
2023-02-27T00:51:16.024Z,97663.63
2023-02-27T00:53:43.213Z,97656.25
2023-02-27T00:56:12.521Z,97657.06
2023-02-27T00:58:39.876Z,97653.97
2023-02-27T01:01:07.167Z,97662.84
2023-02-27T01:03:34.431Z,97662.03
2023-02-27T01:06:01.921Z,97664.50
2023-02-27T01:08:29.317Z,97662.06
2023-02-27T01:10:57.173Z,97661.06
2023-02-27T01:13:24.426Z,97672.69
2023-02-27T01:15:53.156Z,97666.81
2023-02-27T01:18:20.371Z,97670.88
2023-02-27T01:20:55.765Z,97675.47
2023-02-27T01:23:23.833Z,97676.91
2023-02-27T01:25:51.100Z,97677.09
2023-02-27T01:28:18.531Z,97671.66
2023-02-27T01:30:45.865Z,97675.06
2023-02-27T01:33:15.545Z,97685.09
2023-02-27T01:35:42.759Z,97692.44
2023-02-27T01:38:09.995Z,97682.63
2023-02-27T01:40:42.528Z,97682.19
2023-02-27T01:43:20.023Z,97687.00
2023-02-27T01:45:49.007Z,97687.63
2023-02-27T01:48:29.102Z,97695.19
2023-02-27T01:51:13.889Z,97684.94
2023-02-27T01:53:45.846Z,97687.78
2023-02-27T01:56:32.351Z,97689.78
2023-02-27T01:59:07.722Z,97698.22
2023-02-27T02:01:36.159Z,97690.78
2023-02-27T02:04:28.243Z,97695.00
2023-02-27T02:07:06.135Z,97695.69
2023-02-27T02:09:40.467Z,97689.88
2023-02-27T02:12:08.584Z,97700.38
2023-02-27T02:14:35.856Z,97690.22
2023-02-27T02:17:32.664Z,97696.69
2023-02-27T02:20:35.144Z,97692.47
2023-02-27T02:23:11.462Z,97701.25
2023-02-27T02:26:29.272Z,97692.00
2023-02-27T02:29:59.845Z,97692.09
2023-02-27T02:33:15.355Z,97692.47
2023-02-27T02:36:32.354Z,97694.31
2023-02-27T02:39:33.401Z,97689.06
2023-02-27T02:42:37.429Z,97693.47
2023-02-27T02:45:48.576Z,97691.88
2023-02-27T02:48:40.759Z,97702.44
2023-02-27T02:51:30.632Z,97709.09
2023-02-27T02:54:20.328Z,97704.25
2023-02-27T02:57:02.365Z,97704.88
2023-02-27T02:59:40.165Z,97702.91
2023-02-27T03:02:17.103Z,97706.50
2023-02-27T03:04:54.063Z,97708.28
2023-02-27T03:07:43.292Z,97708.69
2023-02-27T03:10:21.356Z,97703.91
2023-02-27T03:13:14.408Z,97712.88
2023-02-27T03:15:54.648Z,97717.06
2023-02-27T03:18:35.015Z,97709.69
2023-02-27T03:21:10.653Z,97717.13
2023-02-27T03:23:48.028Z,97721.78
2023-02-27T03:26:21.901Z,97725.78
2023-02-27T03:29:06.644Z,97723.47
2023-02-27T03:31:58.552Z,97728.09
2023-02-27T03:34:38.167Z,97730.72
2023-02-27T03:37:35.657Z,97732.97
2023-02-27T03:40:33.500Z,97738.50
2023-02-27T03:43:27.280Z,97744.56
2023-02-27T03:46:16.766Z,97748.19
2023-02-27T03:48:46.541Z,97754.13
2023-02-27T03:51:21.073Z,97744.09
2023-02-27T03:53:57.395Z,97752.28
2023-02-27T03:56:32.753Z,97752.97
2023-02-27T03:59:00.319Z,97752.28
2023-02-27T04:01:28.344Z,97749.22
2023-02-27T04:04:17.272Z,97752.56
2023-02-27T04:07:53.101Z,97749.16
2023-02-27T04:11:09.196Z,97753.00
2023-02-27T04:13:54.416Z,97764.63
2023-02-27T04:17:02.898Z,97758.22
2023-02-27T04:19:41.975Z,97767.69
2023-02-27T04:22:18.291Z,97778.59
2023-02-27T04:24:53.800Z,97774.84
2023-02-27T04:27:42.734Z,97769.38
2023-02-27T04:30:30.267Z,97769.03
2023-02-27T04:33:42.235Z,97772.72
2023-02-27T04:36:40.593Z,97766.28
2023-02-27T04:39:18.049Z,97769.94
2023-02-27T04:42:03.533Z,97771.38
2023-02-27T04:44:36.287Z,97763.94
2023-02-27T04:47:07.666Z,97770.59
2023-02-27T04:49:46.688Z,97766.03
2023-02-27T04:52:25.729Z,97771.66
2023-02-27T04:55:11.359Z,97774.88
2023-02-27T04:57:48.442Z,97779.69
2023-02-27T05:00:18.764Z,97784.78
2023-02-27T05:02:52.463Z,97788.44
2023-02-27T05:05:30.215Z,97784.78
2023-02-27T05:08:37.901Z,97775.72
2023-02-27T05:11:33.794Z,97784.22
2023-02-27T05:14:21.807Z,97786.69
2023-02-27T05:17:08.716Z,97791.78
2023-02-27T05:19:41.295Z,97796.81
2023-02-27T05:22:34.931Z,97794.56
2023-02-27T05:25:37.788Z,97808.88
2023-02-27T05:28:33.920Z,97803.16
2023-02-27T05:31:21.099Z,97802.84
2023-02-27T05:33:56.997Z,97797.41
2023-02-27T05:36:57.693Z,97801.25
2023-02-27T05:39:30.459Z,97801.78
2023-02-27T05:42:14.129Z,97803.22
2023-02-27T05:44:50.559Z,97813.97
2023-02-27T05:47:23.689Z,97815.41
2023-02-27T05:49:59.332Z,97818.06
2023-02-27T05:52:28.369Z,97822.69
2023-02-27T05:55:21.054Z,97825.63
2023-02-27T05:58:07.447Z,97826.69
2023-02-27T06:00:53.768Z,97826.13
2023-02-27T06:03:21.908Z,97838.53
2023-02-27T06:05:55.033Z,97839.66
2023-02-27T06:08:23.011Z,97837.94
2023-02-27T06:10:50.520Z,97834.53
2023-02-27T06:13:18.580Z,97837.81
2023-02-27T06:15:46.255Z,97843.88
2023-02-27T06:18:15.300Z,97847.84
2023-02-27T06:20:44.512Z,97846.09
2023-02-27T06:23:12.648Z,97844.56
2023-02-27T06:25:42.282Z,97838.63
2023-02-27T06:28:10.757Z,97845.78
2023-02-27T06:30:38.722Z,97846.75
2023-02-27T06:33:05.984Z,97851.56
2023-02-27T06:35:33.358Z,97853.41
2023-02-27T06:38:00.588Z,97854.59
2023-02-27T06:40:27.965Z,97853.59
2023-02-27T06:42:55.168Z,97866.97
2023-02-27T06:45:24.274Z,97860.94
2023-02-27T06:47:51.563Z,97856.50
2023-02-27T06:50:18.833Z,97857.19
2023-02-27T06:52:46.118Z,97859.50
2023-02-27T06:55:13.495Z,97870.50
2023-02-27T06:57:40.714Z,97867.38
2023-02-27T07:00:11.884Z,97868.34
2023-02-27T07:02:39.770Z,97867.66
2023-02-27T07:05:08.489Z,97881.09
2023-02-27T07:07:37.958Z,97875.28
2023-02-27T07:10:15.907Z,97869.50
2023-02-27T07:12:43.198Z,97878.19
2023-02-27T07:15:11.128Z,97875.81
2023-02-27T07:17:38.422Z,97879.69
2023-02-27T07:20:08.961Z,97879.50
2023-02-27T07:22:37.689Z,97892.31
2023-02-27T07:25:05.564Z,97884.56
2023-02-27T07:27:32.957Z,97893.41
2023-02-27T07:30:01.167Z,97892.09
2023-02-27T07:32:28.800Z,97892.72
2023-02-27T07:34:55.991Z,97897.72
2023-02-27T07:37:23.241Z,97900.72
2023-02-27T07:39:50.732Z,97897.03
2023-02-27T07:42:18.102Z,97896.50
2023-02-27T07:44:45.293Z,97902.16
2023-02-27T07:47:12.775Z,97911.88
2023-02-27T07:49:39.950Z,97902.78
2023-02-27T07:52:08.410Z,97917.88
2023-02-27T07:54:37.639Z,97909.84
2023-02-27T07:57:05.958Z,97921.66
2023-02-27T07:59:33.357Z,97917.63
2023-02-27T08:02:00.625Z,97929.97
2023-02-27T08:04:27.997Z,97929.13
2023-02-27T08:06:55.270Z,97939.28
2023-02-27T08:09:22.463Z,97937.81
2023-02-27T08:11:49.738Z,97938.34
2023-02-27T08:14:16.971Z,97944.13
2023-02-27T08:16:44.154Z,97946.22
2023-02-27T08:19:14.094Z,97949.41
2023-02-27T08:21:41.775Z,97943.59
2023-02-27T08:24:09.016Z,97944.56
2023-02-27T08:26:36.661Z,97949.81
2023-02-27T08:29:04.020Z,97958.09
2023-02-27T08:31:31.408Z,97954.09
2023-02-27T08:34:09.532Z,97959.59
2023-02-27T08:36:38.264Z,97963.69
2023-02-27T08:39:09.550Z,97962.78
2023-02-27T08:41:37.109Z,97962.25
2023-02-27T08:44:04.641Z,97969.59
2023-02-27T08:46:32.164Z,97974.38
2023-02-27T08:48:59.343Z,97969.22
2023-02-27T08:51:26.920Z,97972.28
2023-02-27T08:53:58.898Z,97975.69
2023-02-27T08:56:27.517Z,97970.75
2023-02-27T08:58:56.090Z,97975.56
2023-02-27T09:01:24.033Z,97976.63
2023-02-27T09:03:51.456Z,97980.66
2023-02-27T09:06:18.609Z,97971.81
2023-02-27T09:08:45.855Z,97989.69
2023-02-27T09:11:13.175Z,97983.47
2023-02-27T09:13:40.381Z,97989.91
2023-02-27T09:16:07.994Z,97994.34
2023-02-27T09:18:35.336Z,98000.16
2023-02-27T09:21:03.466Z,97989.88
2023-02-27T09:23:30.724Z,97976.53
2023-02-27T09:25:57.913Z,97996.84
2023-02-27T09:28:25.197Z,97989.97
2023-02-27T09:30:52.904Z,97998.34
2023-02-27T09:33:20.102Z,97995.31
2023-02-27T09:35:47.400Z,97994.78
2023-02-27T09:38:14.569Z,98006.09
2023-02-27T09:40:44.716Z,97987.31
2023-02-27T09:43:21.182Z,97993.66
2023-02-27T09:45:54.838Z,98003.66
2023-02-27T09:48:43.712Z,98001.31
2023-02-27T09:51:11.042Z,98004.84
2023-02-27T09:53:49.667Z,97999.41
2023-02-27T09:56:42.440Z,98009.06
2023-02-27T09:59:25.522Z,98018.16
2023-02-27T10:02:09.191Z,98008.91
2023-02-27T10:04:54.965Z,97995.25
2023-02-27T10:08:01.003Z,98008.72
2023-02-27T10:11:05.023Z,98010.81
2023-02-27T10:14:02.315Z,98011.72
2023-02-27T10:16:32.436Z,98013.94
2023-02-27T10:19:10.850Z,98019.94
2023-02-27T10:21:42.914Z,98020.66
2023-02-27T10:24:27.518Z,98012.00
2023-02-27T10:26:58.131Z,98013.16
2023-02-27T10:29:36.977Z,98011.91
2023-02-27T10:32:11.967Z,98014.34
2023-02-27T10:34:42.353Z,98015.22
2023-02-27T10:37:16.464Z,98006.84
2023-02-27T10:39:49.931Z,98013.59
2023-02-27T10:42:18.466Z,98021.16
2023-02-27T10:44:46.309Z,98014.09
2023-02-27T10:47:16.752Z,98015.31
2023-02-27T10:49:44.567Z,98004.78
2023-02-27T10:52:17.892Z,98006.03
2023-02-27T10:54:47.082Z,98007.97
2023-02-27T10:57:37.072Z,98002.78
2023-02-27T11:00:23.361Z,98001.28
2023-02-27T11:02:54.888Z,98010.94
2023-02-27T11:05:31.112Z,98000.44
2023-02-27T11:08:23.927Z,98007.94
2023-02-27T11:11:27.652Z,98009.53
2023-02-27T11:14:14.921Z,98001.63
2023-02-27T11:16:55.890Z,98013.41
2023-02-27T11:19:39.780Z,98019.78
2023-02-27T11:22:08.373Z,98016.56
2023-02-27T11:24:36.066Z,98017.22
2023-02-27T11:27:29.523Z,98016.00
2023-02-27T11:30:31.859Z,98021.53
2023-02-27T11:33:01.659Z,98018.66
2023-02-27T11:35:36.978Z,98019.19
2023-02-27T11:38:18.815Z,98023.63
2023-02-27T11:40:58.056Z,98015.75
2023-02-27T11:43:33.338Z,98026.38
2023-02-27T11:46:24.085Z,98025.16
2023-02-27T11:49:14.571Z,98024.13
2023-02-27T11:52:33.371Z,98030.50
2023-02-27T11:55:03.978Z,98028.38
2023-02-27T11:57:38.550Z,98027.41
2023-02-27T12:00:33.675Z,98027.63
2023-02-27T12:03:19.757Z,98032.47
2023-02-27T12:05:53.754Z,98027.81
2023-02-27T12:08:44.279Z,98033.06
2023-02-27T12:11:29.923Z,98034.28
2023-02-27T12:14:11.611Z,98036.69
2023-02-27T12:16:46.560Z,98033.28
2023-02-27T12:19:16.710Z,98030.88
2023-02-27T12:21:54.210Z,98030.47
2023-02-27T12:24:49.562Z,98029.25
2023-02-27T12:27:44.151Z,98035.00
2023-02-27T12:30:26.979Z,98033.25
2023-02-27T12:33:25.209Z,98050.16
2023-02-27T12:36:02.500Z,98048.53
2023-02-27T12:38:30.195Z,98051.16
2023-02-27T12:41:41.727Z,98043.50
2023-02-27T12:44:14.818Z,98055.38
2023-02-27T12:47:20.307Z,98053.69
2023-02-27T12:50:15.904Z,98056.88
2023-02-27T12:53:40.788Z,98056.28
2023-02-27T12:56:17.877Z,98053.22
2023-02-27T12:59:29.807Z,98049.53
2023-02-27T13:02:37.532Z,98047.69
2023-02-27T13:05:49.257Z,98050.19
2023-02-27T13:08:59.944Z,98051.78
2023-02-27T13:12:11.600Z,98054.28
2023-02-27T13:15:06.268Z,98061.19
2023-02-27T13:17:49.946Z,98049.13
2023-02-27T13:20:25.768Z,98061.78
2023-02-27T13:23:01.476Z,98045.28
2023-02-27T13:25:30.802Z,98059.13
2023-02-27T13:28:03.778Z,98069.56
2023-02-27T13:30:41.445Z,98054.19
2023-02-27T13:33:25.290Z,98049.75
2023-02-27T13:36:19.112Z,98054.09
2023-02-27T13:38:55.372Z,98052.09
2023-02-27T13:41:25.631Z,98051.97
2023-02-27T13:44:01.376Z,98062.06
2023-02-27T13:46:33.891Z,98066.31
2023-02-27T13:49:20.107Z,98057.19
2023-02-27T13:51:56.814Z,98047.22
2023-02-27T13:54:40.008Z,98060.81
2023-02-27T13:57:24.378Z,98051.41
2023-02-27T14:00:02.208Z,98051.00
2023-02-27T14:02:59.389Z,98051.25
2023-02-27T14:05:41.415Z,98053.28
2023-02-27T14:08:25.922Z,98056.09
2023-02-27T14:11:01.285Z,98055.63
2023-02-27T14:13:50.341Z,98045.44
2023-02-27T14:16:37.424Z,98052.75
2023-02-27T14:19:24.453Z,98054.59
2023-02-27T14:21:56.452Z,98064.22
2023-02-27T14:24:49.625Z,98061.59
2023-02-27T14:27:33.352Z,98054.47
2023-02-27T14:30:11.602Z,98057.03
2023-02-27T14:32:39.234Z,98062.34
2023-02-27T14:35:07.525Z,98057.47
2023-02-27T14:37:36.923Z,98063.06
2023-02-27T14:40:06.448Z,98068.31
2023-02-27T14:42:50.564Z,98061.59
2023-02-27T14:45:25.521Z,98067.91
2023-02-27T14:47:53.444Z,98072.66
2023-02-27T14:50:35.183Z,98072.81
2023-02-27T14:53:06.983Z,98074.66
2023-02-27T14:55:36.853Z,98077.22
2023-02-27T14:58:21.920Z,98076.00
2023-02-27T15:00:58.731Z,98084.66
2023-02-27T15:03:33.151Z,98076.63
2023-02-27T15:06:04.100Z,98080.34
2023-02-27T15:08:40.565Z,98073.47
2023-02-27T15:11:14.189Z,98076.28
2023-02-27T15:13:44.596Z,98086.69
2023-02-27T15:16:23.876Z,98087.31
2023-02-27T15:18:56.031Z,98087.75
2023-02-27T15:21:27.044Z,98090.53
2023-02-27T15:24:03.941Z,98101.41
2023-02-27T15:26:40.614Z,98095.56
2023-02-27T15:29:19.520Z,98100.22
2023-02-27T15:31:46.957Z,98097.84
2023-02-27T15:34:15.699Z,98103.66
2023-02-27T15:36:57.477Z,98098.59
2023-02-27T15:39:28.865Z,98101.56
2023-02-27T15:42:03.429Z,98100.44
2023-02-27T15:44:42.201Z,98108.28
2023-02-27T15:47:18.574Z,98114.59
2023-02-27T15:49:47.450Z,98115.28
2023-02-27T15:52:23.010Z,98113.84
2023-02-27T15:55:12.437Z,98119.41
2023-02-27T15:57:40.921Z,98125.88
2023-02-27T16:00:16.600Z,98118.00
2023-02-27T16:02:52.913Z,98133.25
2023-02-27T16:05:39.195Z,98132.19
2023-02-27T16:08:07.355Z,98130.44
2023-02-27T16:10:43.708Z,98128.34
2023-02-27T16:13:37.208Z,98134.56
2023-02-27T16:16:30.662Z,98136.47
2023-02-27T16:19:03.471Z,98141.84
2023-02-27T16:21:33.900Z,98133.31
2023-02-27T16:24:22.036Z,98144.28
2023-02-27T16:26:53.183Z,98148.50
2023-02-27T16:29:23.833Z,98153.59
2023-02-27T16:31:56.288Z,98156.13
2023-02-27T16:34:45.735Z,98162.84
2023-02-27T16:37:39.739Z,98159.72
2023-02-27T16:40:20.120Z,98164.09
2023-02-27T16:42:48.577Z,98172.06
2023-02-27T16:45:28.669Z,98169.47
2023-02-27T16:47:59.662Z,98170.03
2023-02-27T16:50:40.671Z,98175.03
2023-02-27T16:53:09.005Z,98184.25
2023-02-27T16:55:41.075Z,98184.81
2023-02-27T16:58:15.662Z,98184.00
2023-02-27T17:00:43.465Z,98188.03
2023-02-27T17:03:10.937Z,98188.47
2023-02-27T17:05:38.230Z,98189.81
2023-02-27T17:08:05.797Z,98200.03
2023-02-27T17:10:33.641Z,98193.59
2023-02-27T17:13:00.829Z,98189.75
2023-02-27T17:15:29.211Z,98200.03
2023-02-27T17:17:56.520Z,98197.72
2023-02-27T17:20:26.071Z,98208.19
2023-02-27T17:22:53.313Z,98206.66
2023-02-27T17:25:20.641Z,98206.88
2023-02-27T17:27:48.008Z,98215.47
2023-02-27T17:30:15.881Z,98216.28
2023-02-27T17:32:43.425Z,98220.38
2023-02-27T17:35:11.511Z,98224.06
2023-02-27T17:37:39.087Z,98218.34
2023-02-27T17:40:08.362Z,98222.69
2023-02-27T17:42:39.521Z,98224.22
2023-02-27T17:45:08.776Z,98222.88
2023-02-27T17:47:36.325Z,98220.56
2023-02-27T17:50:05.444Z,98227.81
2023-02-27T17:52:35.341Z,98226.31
2023-02-27T17:55:03.679Z,98232.41
2023-02-27T17:57:31.042Z,98225.84
2023-02-27T17:59:58.338Z,98233.34
2023-02-27T18:02:25.746Z,98235.78
2023-02-27T18:04:53.247Z,98242.69
2023-02-27T18:07:20.570Z,98238.94
2023-02-27T18:09:48.064Z,98242.84
2023-02-27T18:12:15.390Z,98245.84
2023-02-27T18:14:42.671Z,98245.13
2023-02-27T18:17:12.687Z,98247.09
2023-02-27T18:19:43.790Z,98243.88
2023-02-27T18:22:15.193Z,98263.34
2023-02-27T18:24:42.462Z,98263.25
2023-02-27T18:27:09.863Z,98267.09
2023-02-27T18:29:37.236Z,98260.38
2023-02-27T18:32:07.205Z,98263.88
2023-02-27T18:34:34.709Z,98261.09
2023-02-27T18:37:01.953Z,98267.34
2023-02-27T18:39:29.321Z,98266.13
2023-02-27T18:41:56.568Z,98266.94
2023-02-27T18:44:24.354Z,98265.69
2023-02-27T18:46:52.034Z,98268.72
2023-02-27T18:49:19.526Z,98262.47
2023-02-27T18:51:46.838Z,98273.66
2023-02-27T18:54:15.379Z,98273.56
2023-02-27T18:56:42.706Z,98275.78
2023-02-27T18:59:12.129Z,98278.81
2023-02-27T19:01:39.570Z,98281.44
2023-02-27T19:04:09.619Z,98286.63
2023-02-27T19:06:42.303Z,98284.81
2023-02-27T19:09:16.180Z,98290.06
2023-02-27T19:11:46.888Z,98292.56
2023-02-27T19:14:16.094Z,98301.63
2023-02-27T19:16:44.302Z,98302.56
2023-02-27T19:19:11.974Z,98305.25
2023-02-27T19:21:39.735Z,98314.69
2023-02-27T19:24:08.246Z,98317.66
2023-02-27T19:26:36.086Z,98318.03
2023-02-27T19:29:04.160Z,98319.16
2023-02-27T19:31:31.978Z,98313.69
2023-02-27T19:34:00.231Z,98319.91
2023-02-27T19:36:30.604Z,98319.94
2023-02-27T19:38:58.525Z,98320.00
2023-02-27T19:41:26.273Z,98317.34
2023-02-27T19:43:55.936Z,98325.75
2023-02-27T19:46:28.338Z,98323.53
2023-02-27T19:49:01.016Z,98331.41
2023-02-27T19:51:29.104Z,98330.94
2023-02-27T19:53:56.963Z,98330.13
2023-02-27T19:56:28.145Z,98328.78
2023-02-27T19:58:56.263Z,98332.72
2023-02-27T20:01:33.041Z,98334.91
2023-02-27T20:04:02.139Z,98330.19
2023-02-27T20:06:32.224Z,98339.22
2023-02-27T20:09:00.446Z,98333.16
2023-02-27T20:11:31.204Z,98344.72
2023-02-27T20:13:59.240Z,98342.78
2023-02-27T20:16:29.003Z,98347.16
2023-02-27T20:18:57.280Z,98347.69
2023-02-27T20:21:27.084Z,98343.00
2023-02-27T20:23:55.608Z,98346.16
2023-02-27T20:26:30.171Z,98343.88
2023-02-27T20:29:16.330Z,98343.50
2023-02-27T20:31:46.486Z,98348.03
2023-02-27T20:34:17.235Z,98339.53
2023-02-27T20:36:44.738Z,98343.34
2023-02-27T20:39:12.856Z,98347.34
2023-02-27T20:41:40.458Z,98340.06
2023-02-27T20:44:09.057Z,98343.63
2023-02-27T20:46:38.235Z,98345.44
2023-02-27T20:49:06.674Z,98347.03
2023-02-27T20:51:38.978Z,98343.38
2023-02-27T20:54:11.840Z,98340.84
2023-02-27T20:56:41.607Z,98337.97
2023-02-27T20:59:16.866Z,98337.16
2023-02-27T21:01:51.445Z,98337.84
2023-02-27T21:04:43.229Z,98340.56
2023-02-27T21:07:13.549Z,98333.66
2023-02-27T21:09:41.422Z,98342.63
2023-02-27T21:12:09.625Z,98337.31
2023-02-27T21:14:37.481Z,98329.78
2023-02-27T21:17:06.139Z,98340.25
2023-02-27T21:19:33.556Z,98344.56
2023-02-27T21:22:00.970Z,98342.66
2023-02-27T21:24:32.164Z,98349.16
2023-02-27T21:27:00.190Z,98352.97
2023-02-27T21:29:27.546Z,98355.13
2023-02-27T21:31:55.199Z,98352.47
2023-02-27T21:34:26.913Z,98355.50
2023-02-27T21:36:55.624Z,98359.66
2023-02-27T21:39:27.088Z,98362.25
2023-02-27T21:41:55.172Z,98360.25
2023-02-27T21:44:26.477Z,98367.84
2023-02-27T21:46:54.510Z,98361.38
2023-02-27T21:49:28.305Z,98359.94
2023-02-27T21:51:56.143Z,98356.88
2023-02-27T21:54:23.859Z,98350.44
2023-02-27T21:56:51.269Z,98357.94
2023-02-27T21:59:19.413Z,98364.34
2023-02-27T22:01:48.339Z,98362.25
2023-02-27T22:04:19.217Z,98361.09
2023-02-27T22:06:47.507Z,98355.66
2023-02-27T22:09:15.156Z,98351.69
2023-02-27T22:11:42.778Z,98354.41
2023-02-27T22:14:11.922Z,98351.97
2023-02-27T22:16:39.863Z,98350.59
2023-02-27T22:19:13.860Z,98348.09
2023-02-27T22:21:41.611Z,98352.84
2023-02-27T22:24:09.160Z,98352.53
2023-02-27T22:26:37.470Z,98347.06
2023-02-27T22:29:06.873Z,98355.56
2023-02-27T22:31:37.915Z,98357.53
2023-02-27T22:34:12.394Z,98356.19
2023-02-27T22:36:41.730Z,98356.41
2023-02-27T22:39:09.159Z,98357.66
2023-02-27T22:41:40.215Z,98348.28
2023-02-27T22:44:12.341Z,98351.47
2023-02-27T22:46:44.424Z,98347.88
2023-02-27T22:49:16.128Z,98347.16
2023-02-27T22:51:44.449Z,98351.56
2023-02-27T22:54:14.891Z,98349.75
2023-02-27T22:56:43.441Z,98353.94
2023-02-27T22:59:11.352Z,98346.59
2023-02-27T23:01:38.985Z,98351.09
2023-02-27T23:04:09.051Z,98359.94
2023-02-27T23:06:39.873Z,98362.19
2023-02-27T23:09:09.457Z,98368.03
2023-02-27T23:11:36.839Z,98374.38
2023-02-27T23:14:04.697Z,98371.03
2023-02-27T23:16:32.219Z,98370.00
2023-02-27T23:19:00.919Z,98379.53
2023-02-27T23:21:35.110Z,98381.50
2023-02-27T23:24:08.754Z,98382.81
2023-02-27T23:26:42.320Z,98391.91
2023-02-27T23:29:10.398Z,98387.38
2023-02-27T23:31:38.449Z,98384.28
2023-02-27T23:34:07.026Z,98373.88
2023-02-27T23:36:36.459Z,98380.81
2023-02-27T23:39:05.697Z,98379.88
2023-02-27T23:41:34.196Z,98381.47
2023-02-27T23:44:01.929Z,98388.53
2023-02-27T23:46:30.681Z,98387.56
2023-02-27T23:49:02.051Z,98387.69
2023-02-27T23:51:30.899Z,98387.47
2023-02-27T23:53:59.258Z,98383.22
2023-02-27T23:56:29.811Z,98390.06
2023-02-27T23:59:01.539Z,98389.97
